createdAt,value
2023-04-28T00:00:23.247Z,11.35
2023-04-28T00:03:28.875Z,11.38
2023-04-28T00:06:34.916Z,11.16
2023-04-28T00:09:40.450Z,11.05
2023-04-28T00:12:45.834Z,11.11
2023-04-28T00:15:53.321Z,11.06
2023-04-28T00:18:59.273Z,11.20
2023-04-28T00:22:05.304Z,11.02
2023-04-28T00:25:11.048Z,10.99
2023-04-28T00:28:30.554Z,10.95
2023-04-28T00:31:40.174Z,10.86
2023-04-28T00:34:45.687Z,10.77
2023-04-28T00:37:51.906Z,10.86
2023-04-28T00:40:57.520Z,10.82
2023-04-28T00:44:02.964Z,10.98
2023-04-28T00:47:10.370Z,10.99
2023-04-28T00:50:16.983Z,10.87
2023-04-28T00:53:22.786Z,10.92
2023-04-28T00:56:31.706Z,10.76
2023-04-28T00:59:37.328Z,10.67
2023-04-28T01:02:43.306Z,11.01
2023-04-28T01:05:49.634Z,10.87
2023-04-28T01:08:56.515Z,10.76
2023-04-28T01:12:02.453Z,10.69
2023-04-28T01:15:22.691Z,10.74
2023-04-28T01:18:32.794Z,10.82
2023-04-28T01:21:38.546Z,10.78
2023-04-28T01:24:54.735Z,10.87
2023-04-28T01:28:01.850Z,10.81
2023-04-28T01:31:07.538Z,10.83
2023-04-28T01:34:13.186Z,10.63
2023-04-28T01:37:18.754Z,10.85
2023-04-28T01:40:24.940Z,10.89
2023-04-28T01:43:30.807Z,10.89
2023-04-28T01:46:37.407Z,10.81
2023-04-28T01:49:42.493Z,10.70
2023-04-28T01:52:47.884Z,10.62
2023-04-28T01:55:54.379Z,10.56
2023-04-28T01:58:59.816Z,10.65
2023-04-28T02:02:05.573Z,10.74
2023-04-28T02:05:12.429Z,10.61
2023-04-28T02:08:19.121Z,10.59
2023-04-28T02:11:24.552Z,10.62
2023-04-28T02:14:34.931Z,10.67
2023-04-28T02:17:40.805Z,10.73
2023-04-28T02:20:46.648Z,10.45
2023-04-28T02:23:52.218Z,10.30
2023-04-28T02:26:57.735Z,10.48
2023-04-28T02:30:06.920Z,10.62
2023-04-28T02:33:12.931Z,10.57
2023-04-28T02:36:18.720Z,10.50
2023-04-28T02:39:27.329Z,10.62
2023-04-28T02:42:35.751Z,10.62
2023-04-28T02:45:41.156Z,10.36
2023-04-28T02:48:46.570Z,10.27
2023-04-28T02:51:52.446Z,10.41
2023-04-28T02:54:58.154Z,10.44
2023-04-28T02:58:04.553Z,10.41
2023-04-28T03:01:10.130Z,10.52
2023-04-28T03:04:17.160Z,10.40
2023-04-28T03:07:23.754Z,10.32
2023-04-28T03:10:29.332Z,10.14
2023-04-28T03:13:36.609Z,9.75
2023-04-28T03:16:43.279Z,10.14
2023-04-28T03:19:48.940Z,10.16
2023-04-28T03:22:54.860Z,10.24
2023-04-28T03:26:00.842Z,9.54
2023-04-28T03:29:07.971Z,9.51
2023-04-28T03:32:14.155Z,9.91
2023-04-28T03:35:20.006Z,9.83
2023-04-28T03:38:26.306Z,9.96
2023-04-28T03:41:32.271Z,9.93
2023-04-28T03:44:59.138Z,9.65
2023-04-28T03:48:04.865Z,9.53
2023-04-28T03:51:10.202Z,9.83
2023-04-28T03:54:16.006Z,10.00
2023-04-28T03:57:21.749Z,10.06
2023-04-28T04:00:27.352Z,10.05
2023-04-28T04:03:33.706Z,9.98
2023-04-28T04:06:39.556Z,9.44
2023-04-28T04:09:45.181Z,9.54
2023-04-28T04:12:50.740Z,8.88
2023-04-28T04:15:57.175Z,9.42
2023-04-28T04:19:03.700Z,9.34
2023-04-28T04:22:23.370Z,9.56
2023-04-28T04:25:29.176Z,9.77
2023-04-28T04:28:34.895Z,9.80
2023-04-28T04:31:41.224Z,10.00
2023-04-28T04:34:47.198Z,9.93
2023-04-28T04:37:53.883Z,9.85
2023-04-28T04:40:59.787Z,9.78
2023-04-28T04:44:06.176Z,10.00
2023-04-28T04:47:18.133Z,9.94
2023-04-28T04:50:24.818Z,9.86
2023-04-28T04:53:30.747Z,9.87
2023-04-28T04:56:36.925Z,10.01
2023-04-28T04:59:43.725Z,9.77
2023-04-28T05:02:54.168Z,9.67
2023-04-28T05:06:00.114Z,9.63
2023-04-28T05:09:18.499Z,9.67
2023-04-28T05:12:23.953Z,9.86
2023-04-28T05:15:29.814Z,10.00
2023-04-28T05:19:01.882Z,10.14
2023-04-28T05:22:08.268Z,9.93
2023-04-28T05:25:16.693Z,10.06
2023-04-28T05:28:22.993Z,9.71
2023-04-28T05:31:32.850Z,9.80
2023-04-28T05:34:38.448Z,10.36
2023-04-28T05:37:45.288Z,10.48
2023-04-28T05:40:51.421Z,9.92
2023-04-28T05:43:57.107Z,9.91
2023-04-28T05:47:03.062Z,10.20
2023-04-28T05:50:09.523Z,10.35
2023-04-28T05:53:15.291Z,10.46
2023-04-28T05:56:21.404Z,10.55
2023-04-28T05:59:28.833Z,10.87
2023-04-28T06:02:36.577Z,10.90
2023-04-28T06:05:42.514Z,10.72
2023-04-28T06:08:48.636Z,10.97
2023-04-28T06:11:53.864Z,11.00
2023-04-28T06:14:59.260Z,11.24
2023-04-28T06:18:07.799Z,11.21
2023-04-28T06:21:13.169Z,11.25
2023-04-28T06:24:18.665Z,11.74
2023-04-28T06:27:26.201Z,11.88
2023-04-28T06:30:32.284Z,12.00
2023-04-28T06:33:38.550Z,11.98
2023-04-28T06:36:45.099Z,12.06
2023-04-28T06:39:50.466Z,12.24
2023-04-28T06:42:55.898Z,12.37
2023-04-28T06:46:13.787Z,12.56
2023-04-28T06:49:21.931Z,12.68
2023-04-28T06:52:38.511Z,13.00
2023-04-28T06:55:44.740Z,12.63
2023-04-28T06:58:51.185Z,12.98
2023-04-28T07:01:57.360Z,13.22
2023-04-28T07:05:04.038Z,13.39
2023-04-28T07:08:09.729Z,13.52
2023-04-28T07:11:16.810Z,13.84
2023-04-28T07:14:22.746Z,14.06
2023-04-28T07:17:28.572Z,13.91
2023-04-28T07:20:33.989Z,13.84
2023-04-28T07:23:40.941Z,14.08
2023-04-28T07:26:46.823Z,14.32
2023-04-28T07:29:52.528Z,14.43
2023-04-28T07:32:58.784Z,14.61
2023-04-28T07:36:04.908Z,14.85
2023-04-28T07:39:10.383Z,14.85
2023-04-28T07:42:16.119Z,14.63
2023-04-28T07:45:21.972Z,14.79
2023-04-28T07:48:27.694Z,15.15
2023-04-28T07:51:34.052Z,15.01
2023-04-28T07:54:39.896Z,15.12
2023-04-28T07:57:45.836Z,15.11
2023-04-28T08:00:51.314Z,15.23
2023-04-28T08:03:56.874Z,15.41
2023-04-28T08:07:02.906Z,15.23
2023-04-28T08:10:10.157Z,15.57
2023-04-28T08:13:16.912Z,15.72
2023-04-28T08:16:23.547Z,15.78
2023-04-28T08:19:28.842Z,16.05
2023-04-28T08:22:34.376Z,15.87
2023-04-28T08:25:39.817Z,15.87
2023-04-28T08:28:45.359Z,15.96
2023-04-28T08:31:50.956Z,16.09
2023-04-28T08:34:56.712Z,16.61
2023-04-28T08:38:02.497Z,16.58
2023-04-28T08:41:07.718Z,16.86
2023-04-28T08:44:13.342Z,16.69
2023-04-28T08:47:22.405Z,16.69
2023-04-28T08:50:31.918Z,16.65
2023-04-28T08:54:06.143Z,16.71
2023-04-28T08:57:05.832Z,16.72
2023-04-28T09:00:12.571Z,16.59
2023-04-28T09:03:18.738Z,16.65
2023-04-28T09:06:24.490Z,17.06
2023-04-28T09:09:34.742Z,17.11
2023-04-28T09:12:42.834Z,17.43
2023-04-28T09:15:48.807Z,17.26
2023-04-28T09:19:01.319Z,17.43
2023-04-28T09:22:17.465Z,17.72
2023-04-28T09:25:29.911Z,17.89
2023-04-28T09:28:36.821Z,17.50
2023-04-28T09:31:44.025Z,17.83
2023-04-28T09:34:52.309Z,17.83
2023-04-28T09:40:58.845Z,17.88
2023-04-28T09:44:24.147Z,18.18
2023-04-28T09:47:30.293Z,18.13
2023-04-28T09:50:42.107Z,17.64
2023-04-28T09:53:47.727Z,18.19
2023-04-28T09:56:55.156Z,18.61
2023-04-28T10:00:02.488Z,18.51
2023-04-28T10:03:11.557Z,18.11
2023-04-28T10:06:17.580Z,18.05
2023-04-28T10:09:27.760Z,18.22
2023-04-28T10:12:34.030Z,18.18
2023-04-28T10:15:39.855Z,18.48
2023-04-28T10:18:46.586Z,18.48
2023-04-28T10:22:24.180Z,18.38
2023-04-28T10:25:35.468Z,18.35
2023-04-28T10:28:52.313Z,18.19
2023-04-28T10:32:26.501Z,18.47
2023-04-28T10:35:32.507Z,18.63
2023-04-28T10:39:18.631Z,18.59
2023-04-28T10:42:53.010Z,18.88
2023-04-28T10:46:01.912Z,18.55
2023-04-28T10:49:07.543Z,18.84
2023-04-28T10:52:41.188Z,18.54
2023-04-28T10:56:06.957Z,18.51
2023-04-28T10:59:28.919Z,18.53
2023-04-28T11:02:44.434Z,18.38
2023-04-28T11:06:26.682Z,18.66
2023-04-28T11:09:32.398Z,18.73
2023-04-28T11:13:16.031Z,18.83
2023-04-28T11:16:24.528Z,19.10
2023-04-28T11:19:34.192Z,19.06
2023-04-28T11:22:40.921Z,19.16
2023-04-28T11:25:57.175Z,19.24
2023-04-28T11:29:02.427Z,19.52
2023-04-28T11:32:10.002Z,19.21
2023-04-28T11:35:15.379Z,19.51
2023-04-28T11:38:21.228Z,19.63
2023-04-28T11:41:26.888Z,19.66
2023-04-28T11:44:33.216Z,19.72
2023-04-28T11:47:38.673Z,19.77
2023-04-28T11:50:45.594Z,19.42
2023-04-28T11:53:50.989Z,19.37
2023-04-28T11:56:58.452Z,19.40
2023-04-28T12:00:15.293Z,19.37
2023-04-28T12:03:21.351Z,19.60
2023-04-28T12:06:27.094Z,19.76
2023-04-28T12:09:34.358Z,19.74
2023-04-28T12:12:49.940Z,19.53
2023-04-28T12:15:59.398Z,19.81
2023-04-28T12:19:08.190Z,20.22
2023-04-28T12:22:13.611Z,20.28
2023-04-28T12:25:20.413Z,20.23
2023-04-28T12:28:41.113Z,19.98
2023-04-28T12:31:53.451Z,20.31
2023-04-28T12:34:59.560Z,20.10
2023-04-28T12:38:05.514Z,19.73
2023-04-28T12:41:11.980Z,20.17
2023-04-28T12:44:17.679Z,20.14
2023-04-28T12:47:23.789Z,19.98
2023-04-28T12:50:33.223Z,20.45
2023-04-28T12:53:38.952Z,20.68
2023-04-28T12:56:44.959Z,20.95
2023-04-28T12:59:52.765Z,20.60
2023-04-28T13:02:59.151Z,20.46
2023-04-28T13:06:05.534Z,20.75
2023-04-28T13:09:12.543Z,20.64
2023-04-28T13:12:18.368Z,21.13
2023-04-28T13:15:24.107Z,21.17
2023-04-28T13:18:30.410Z,20.77
2023-04-28T13:21:36.640Z,20.79
2023-04-28T13:24:44.365Z,20.99
2023-04-28T13:27:50.162Z,20.76
2023-04-28T13:30:56.347Z,20.84
2023-04-28T13:34:02.474Z,21.16
2023-04-28T13:37:08.186Z,21.05
2023-04-28T13:40:13.975Z,20.96
2023-04-28T13:43:19.608Z,20.55
2023-04-28T13:46:25.331Z,20.88
2023-04-28T13:49:30.626Z,20.81
2023-04-28T13:52:38.346Z,20.89
2023-04-28T13:55:44.093Z,20.72
2023-04-28T13:58:49.533Z,20.83
2023-04-28T14:01:54.780Z,20.83
2023-04-28T14:05:00.419Z,20.87
2023-04-28T14:08:06.527Z,21.02
2023-04-28T14:11:12.407Z,21.07
2023-04-28T14:14:18.525Z,21.27
2023-04-28T14:17:24.093Z,21.29
2023-04-28T14:20:29.613Z,21.33
2023-04-28T14:23:38.073Z,21.46
2023-04-28T14:26:44.209Z,21.34
2023-04-28T14:29:49.827Z,21.56
2023-04-28T14:32:55.362Z,21.35
2023-04-28T14:36:02.682Z,21.05
2023-04-28T14:39:08.212Z,20.97
2023-04-28T14:42:14.378Z,20.94
2023-04-28T14:45:20.286Z,20.87
2023-04-28T14:48:26.315Z,20.92
2023-04-28T14:51:32.214Z,21.01
2023-04-28T14:54:38.405Z,20.91
2023-04-28T14:57:44.026Z,20.94
2023-04-28T15:00:50.220Z,21.17
2023-04-28T15:03:56.026Z,21.20
2023-04-28T15:07:02.032Z,21.63
2023-04-28T15:10:08.326Z,21.43
2023-04-28T15:13:13.896Z,21.44
2023-04-28T15:16:20.166Z,21.68
2023-04-28T15:19:26.239Z,21.71
2023-04-28T15:22:31.780Z,21.77
2023-04-28T15:25:37.324Z,21.60
2023-04-28T15:28:42.672Z,21.57
2023-04-28T15:31:48.097Z,21.62
2023-04-28T15:34:53.529Z,21.44
2023-04-28T15:38:00.607Z,21.58
2023-04-28T15:41:05.993Z,21.40
2023-04-28T15:44:11.939Z,21.45
2023-04-28T15:47:17.974Z,21.61
2023-04-28T15:50:24.349Z,21.70
2023-04-28T15:53:30.350Z,21.82
2023-04-28T15:56:36.199Z,21.78
2023-04-28T15:59:41.820Z,21.72
2023-04-28T16:02:47.538Z,21.52
2023-04-28T16:05:56.334Z,21.52
2023-04-28T16:09:02.793Z,21.47
2023-04-28T16:12:08.639Z,21.49
2023-04-28T16:15:14.365Z,21.23
2023-04-28T16:18:19.766Z,21.03
2023-04-28T16:21:25.343Z,21.04
2023-04-28T16:24:31.946Z,20.91
2023-04-28T16:27:38.055Z,20.74
2023-04-28T16:30:44.093Z,20.78
2023-04-28T16:33:49.587Z,20.64
2023-04-28T16:36:55.276Z,20.64
2023-04-28T16:40:01.653Z,20.57
2023-04-28T16:43:07.529Z,20.58
2023-04-28T16:46:13.172Z,20.44
2023-04-28T16:49:18.849Z,20.45
2023-04-28T16:52:24.271Z,20.39
2023-04-28T16:55:30.206Z,20.37
2023-04-28T16:58:35.683Z,20.28
2023-04-28T17:01:41.233Z,20.26
2023-04-28T17:04:47.358Z,20.22
2023-04-28T17:07:55.255Z,20.06
2023-04-28T17:11:03.923Z,19.92
2023-04-28T17:14:09.430Z,19.84
2023-04-28T17:17:14.741Z,19.62
2023-04-28T17:20:20.523Z,19.57
2023-04-28T17:23:28.044Z,19.64
2023-04-28T17:26:33.631Z,19.37
2023-04-28T17:29:39.020Z,19.40
2023-04-28T17:32:44.996Z,19.41
2023-04-28T17:35:50.686Z,19.42
2023-04-28T17:38:56.690Z,19.47
2023-04-28T17:42:02.807Z,19.30
2023-04-28T17:45:08.634Z,19.22
2023-04-28T17:48:14.126Z,19.13
2023-04-28T17:51:20.300Z,18.96
2023-04-28T17:54:25.611Z,18.87
2023-04-28T17:57:32.452Z,18.67
2023-04-28T18:00:39.261Z,18.66
2023-04-28T18:03:44.981Z,18.54
2023-04-28T18:06:50.513Z,18.49
2023-04-28T18:09:57.738Z,18.38
2023-04-28T18:13:03.785Z,18.28
2023-04-28T18:16:14.049Z,18.13
2023-04-28T18:19:19.440Z,18.13
2023-04-28T18:22:25.015Z,17.99
2023-04-28T18:25:32.436Z,17.89
2023-04-28T18:28:37.913Z,17.80
2023-04-28T18:31:43.642Z,17.79
2023-04-28T18:34:49.827Z,17.64
2023-04-28T18:37:55.710Z,17.59
2023-04-28T18:41:02.501Z,17.44
2023-04-28T18:44:08.658Z,17.36
2023-04-28T18:47:15.942Z,17.28
2023-04-28T18:50:21.682Z,17.19
2023-04-28T18:53:28.514Z,17.11
2023-04-28T18:56:35.385Z,16.97
2023-04-28T18:59:40.942Z,16.85
2023-04-28T19:02:46.398Z,16.78
2023-04-28T19:05:52.033Z,16.74
2023-04-28T19:08:57.592Z,16.77
2023-04-28T19:12:02.614Z,16.76
2023-04-28T19:15:08.561Z,16.68
2023-04-28T19:18:13.718Z,16.62
2023-04-28T19:21:20.251Z,16.40
2023-04-28T19:24:25.916Z,16.33
2023-04-28T19:27:37.724Z,16.31
2023-04-28T19:30:43.802Z,16.24
2023-04-28T19:33:49.649Z,16.25
2023-04-28T19:36:56.996Z,16.09
2023-04-28T19:40:07.485Z,16.03
2023-04-28T19:43:14.571Z,15.94
2023-04-28T19:46:20.506Z,16.02
2023-04-28T19:49:26.854Z,16.00
2023-04-28T19:52:32.603Z,15.98
2023-04-28T19:55:38.414Z,15.69
2023-04-28T19:58:44.164Z,15.62
2023-04-28T20:01:50.362Z,15.60
2023-04-28T20:04:56.721Z,15.56
2023-04-28T20:08:02.724Z,15.36
2023-04-28T20:11:08.536Z,15.23
2023-04-28T20:14:14.389Z,15.24
2023-04-28T20:17:20.426Z,15.03
2023-04-28T20:20:26.420Z,14.85
2023-04-28T20:23:32.444Z,14.88
2023-04-28T20:26:38.770Z,14.87
2023-04-28T20:29:44.254Z,14.78
2023-04-28T20:32:50.391Z,14.54
2023-04-28T20:35:55.635Z,14.58
2023-04-28T20:39:00.887Z,14.57
2023-04-28T20:42:06.413Z,14.89
2023-04-28T20:45:12.286Z,14.78
2023-04-28T20:48:19.714Z,14.64
2023-04-28T20:51:25.673Z,14.47
2023-04-28T20:54:36.222Z,14.67
2023-04-28T20:57:42.216Z,14.60
2023-04-28T21:00:47.988Z,14.48
2023-04-28T21:03:53.735Z,14.37
2023-04-28T21:06:59.629Z,14.60
2023-04-28T21:10:05.544Z,14.47
2023-04-28T21:13:10.993Z,14.57
2023-04-28T21:16:20.945Z,14.53
2023-04-28T21:19:26.807Z,14.53
2023-04-28T21:22:32.278Z,14.47
2023-04-28T21:25:38.320Z,14.45
2023-04-28T21:28:43.796Z,14.31
2023-04-28T21:31:49.492Z,14.39
2023-04-28T21:34:55.767Z,14.46
2023-04-28T21:38:01.968Z,14.32
2023-04-28T21:41:08.006Z,14.28
2023-04-28T21:44:13.789Z,14.41
2023-04-28T21:47:19.268Z,14.37
2023-04-28T21:50:24.682Z,14.41
2023-04-28T21:53:30.431Z,14.46
2023-04-28T21:56:36.337Z,14.36
2023-04-28T21:59:41.829Z,14.35
2023-04-28T22:02:47.681Z,14.31
2023-04-28T22:05:53.104Z,14.46
2023-04-28T22:08:58.794Z,14.50
2023-04-28T22:12:04.464Z,14.45
2023-04-28T22:15:10.482Z,14.21
2023-04-28T22:18:17.508Z,14.27
2023-04-28T22:21:23.115Z,14.33
2023-04-28T22:24:28.867Z,14.31
2023-04-28T22:27:34.478Z,14.35
2023-04-28T22:30:39.995Z,14.20
2023-04-28T22:33:45.699Z,14.32
2023-04-28T22:36:51.886Z,14.29
2023-04-28T22:39:57.182Z,14.26
2023-04-28T22:43:03.140Z,14.32
2023-04-28T22:46:09.053Z,14.19
2023-04-28T22:49:14.327Z,14.12
2023-04-28T22:52:21.621Z,14.10
2023-04-28T22:55:26.981Z,14.11
2023-04-28T22:58:32.808Z,14.14
2023-04-28T23:01:38.815Z,14.12
2023-04-28T23:04:44.600Z,14.09
2023-04-28T23:07:50.360Z,14.03
2023-04-28T23:10:59.451Z,14.01
2023-04-28T23:14:05.585Z,14.07
2023-04-28T23:17:11.559Z,13.91
2023-04-28T23:20:17.056Z,13.79
2023-04-28T23:23:22.519Z,13.85
2023-04-28T23:26:28.020Z,13.87
2023-04-28T23:29:35.457Z,13.65
2023-04-28T23:32:40.992Z,13.74
2023-04-28T23:35:46.230Z,13.61
2023-04-28T23:38:51.779Z,13.75
2023-04-28T23:41:58.933Z,13.58
2023-04-28T23:45:05.071Z,13.50
2023-04-28T23:48:11.428Z,13.33
2023-04-28T23:51:17.238Z,13.35
2023-04-28T23:54:23.147Z,13.18
2023-04-28T23:57:29.078Z,13.19
